createdAt,value
2018-04-01T00:00:12.824Z,975.79
2018-04-01T00:01:13.047Z,975.79
2018-04-01T00:02:13.271Z,975.80
2018-04-01T00:03:13.498Z,975.79
2018-04-01T00:04:13.721Z,975.79
2018-04-01T00:05:13.947Z,975.79
2018-04-01T00:06:14.172Z,975.82
2018-04-01T00:07:14.396Z,975.83
2018-04-01T00:08:14.628Z,975.87
2018-04-01T00:09:14.845Z,975.89
2018-04-01T00:10:15.070Z,975.93
2018-04-01T00:11:15.301Z,975.91
2018-04-01T00:12:15.522Z,975.91
2018-04-01T00:13:15.758Z,975.91
2018-04-01T00:14:15.976Z,975.94
2018-04-01T00:15:16.265Z,975.98
2018-04-01T00:16:16.428Z,975.96
2018-04-01T00:17:16.651Z,975.97
2018-04-01T00:18:16.874Z,975.99
2018-04-01T00:19:17.101Z,975.97
2018-04-01T00:20:17.325Z,976.03
2018-04-01T00:21:17.549Z,975.98
2018-04-01T00:22:17.781Z,976.03
2018-04-01T00:23:18.062Z,976.05
2018-04-01T00:24:18.171Z,976.01
2018-04-01T00:25:18.393Z,976.00
2018-04-01T00:26:18.614Z,976.02
2018-04-01T00:27:18.839Z,976.02
2018-04-01T00:28:19.063Z,976.01
2018-04-01T00:29:19.286Z,976.01
2018-04-01T00:30:19.514Z,976.03
2018-04-01T00:31:19.737Z,976.02
2018-04-01T00:32:19.959Z,976.00
2018-04-01T00:33:20.186Z,975.98
2018-04-01T00:34:20.410Z,976.00
2018-04-01T00:35:20.632Z,976.01
2018-04-01T00:36:20.856Z,975.99
2018-04-01T00:37:21.079Z,975.99
2018-04-01T00:38:21.303Z,976.04
2018-04-01T00:39:21.529Z,976.05
2018-04-01T00:40:21.753Z,976.04
2018-04-01T00:41:21.984Z,976.07
2018-04-01T00:42:22.210Z,976.13
2018-04-01T00:43:22.433Z,976.14
2018-04-01T00:44:22.654Z,976.17
2018-04-01T00:45:22.878Z,976.17
2018-04-01T00:46:23.112Z,976.18
2018-04-01T00:47:23.325Z,976.19
2018-04-01T00:48:23.548Z,976.26
2018-04-01T00:49:23.772Z,976.23
2018-04-01T00:50:23.996Z,976.20
2018-04-01T00:51:24.227Z,976.28
2018-04-01T00:52:24.448Z,976.30
2018-04-01T00:53:24.671Z,976.36
2018-04-01T00:54:24.899Z,976.38
2018-04-01T00:55:25.119Z,976.33
2018-04-01T00:56:25.342Z,976.30
2018-04-01T00:57:25.566Z,976.27
2018-04-01T00:58:25.791Z,976.26
2018-04-01T00:59:26.017Z,976.34
2018-04-01T01:00:26.271Z,976.37
2018-04-01T01:01:26.455Z,976.36
2018-04-01T01:02:26.682Z,976.34
2018-04-01T01:03:26.901Z,976.34
2018-04-01T01:04:27.128Z,976.37
2018-04-01T01:05:27.351Z,976.39
2018-04-01T01:06:27.574Z,976.38
2018-04-01T01:07:27.797Z,976.38
2018-04-01T01:08:28.022Z,976.44
2018-04-01T01:09:28.243Z,976.43
2018-04-01T01:10:28.468Z,976.38
2018-04-01T01:11:28.691Z,976.34
2018-04-01T01:12:28.914Z,976.37
2018-04-01T01:13:29.142Z,976.35
2018-04-01T01:14:29.364Z,976.37
2018-04-01T01:15:29.588Z,976.37
2018-04-01T01:16:29.812Z,976.35
2018-04-01T01:17:30.041Z,976.37
2018-04-01T01:18:30.262Z,976.39
2018-04-01T01:19:30.479Z,976.37
2018-04-01T01:20:30.706Z,976.35
2018-04-01T01:21:30.933Z,976.37
2018-04-01T01:22:31.155Z,976.33
2018-04-01T01:23:31.382Z,976.35
2018-04-01T01:24:31.629Z,976.33
2018-04-01T01:25:31.832Z,976.36
2018-04-01T01:26:32.058Z,976.32
2018-04-01T01:27:32.282Z,976.28
2018-04-01T01:28:32.504Z,976.33
2018-04-01T01:29:32.746Z,976.32
2018-04-01T01:30:32.954Z,976.33
2018-04-01T01:31:33.179Z,976.33
2018-04-01T01:32:33.412Z,976.32
2018-04-01T01:33:33.629Z,976.25
2018-04-01T01:34:33.854Z,976.30
2018-04-01T01:35:34.079Z,976.31
2018-04-01T01:36:34.298Z,976.26
2018-04-01T01:37:34.529Z,976.23
2018-04-01T01:38:34.748Z,976.21
2018-04-01T01:39:34.972Z,976.23
2018-04-01T01:40:35.198Z,976.24
2018-04-01T01:41:35.422Z,976.21
2018-04-01T01:42:35.648Z,976.21
2018-04-01T01:43:35.867Z,976.22
2018-04-01T01:44:36.094Z,976.20
2018-04-01T01:45:36.317Z,976.21
2018-04-01T01:46:36.539Z,976.24
2018-04-01T01:47:36.764Z,976.27
2018-04-01T01:48:36.990Z,976.31
2018-04-01T01:49:37.211Z,976.30
2018-04-01T01:50:37.434Z,976.25
2018-04-01T01:51:37.659Z,976.29
2018-04-01T01:52:37.882Z,976.31
2018-04-01T01:53:38.105Z,976.29
2018-04-01T01:54:38.333Z,976.25
2018-04-01T01:55:38.559Z,976.18
2018-04-01T01:56:38.783Z,976.14
2018-04-01T01:57:39.009Z,976.11
2018-04-01T01:58:39.252Z,976.10
2018-04-01T01:59:39.446Z,976.14
2018-04-01T02:00:39.668Z,976.12
2018-04-01T02:01:39.892Z,976.15
2018-04-01T02:02:40.116Z,976.16
2018-04-01T02:03:40.342Z,976.13
2018-04-01T02:04:40.566Z,976.12
2018-04-01T02:05:40.789Z,976.16
2018-04-01T02:06:41.020Z,976.11
2018-04-01T02:07:41.236Z,976.12
2018-04-01T02:08:41.462Z,976.17
2018-04-01T02:09:41.685Z,976.16
2018-04-01T02:10:41.911Z,976.18
2018-04-01T02:11:42.134Z,976.20
2018-04-01T02:12:42.358Z,976.15
2018-04-01T02:13:42.592Z,976.14
2018-04-01T02:14:42.819Z,976.12
2018-04-01T02:15:43.043Z,976.03
2018-04-01T02:16:43.269Z,976.01
2018-04-01T02:17:43.496Z,975.99
2018-04-01T02:18:43.718Z,975.99
2018-04-01T02:19:43.940Z,975.98
2018-04-01T02:20:44.177Z,976.00
2018-04-01T02:21:44.409Z,976.09
2018-04-01T02:22:44.629Z,976.02
2018-04-01T02:23:44.860Z,976.03
2018-04-01T02:24:45.085Z,976.04
2018-04-01T02:25:45.310Z,976.06
2018-04-01T02:26:45.535Z,976.15
2018-04-01T02:27:45.755Z,976.09
2018-04-01T02:28:45.973Z,976.17
2018-04-01T02:29:46.199Z,976.16
2018-04-01T02:30:46.425Z,976.17
2018-04-01T02:31:46.651Z,976.12
2018-04-01T02:32:46.871Z,976.13
2018-04-01T02:33:47.098Z,976.14
2018-04-01T02:34:47.322Z,976.12
2018-04-01T02:35:47.547Z,976.12
2018-04-01T02:36:47.773Z,976.08
2018-04-01T02:37:47.998Z,976.08
2018-04-01T02:38:48.222Z,976.13
2018-04-01T02:39:48.446Z,976.13
2018-04-01T02:40:48.679Z,976.13
2018-04-01T02:41:48.896Z,976.15
2018-04-01T02:42:49.118Z,976.15
2018-04-01T02:43:49.342Z,976.19
2018-04-01T02:44:49.568Z,976.17
2018-04-01T02:45:49.803Z,976.18
2018-04-01T02:46:50.037Z,976.17
2018-04-01T02:47:50.256Z,976.16
2018-04-01T02:48:50.493Z,976.20
2018-04-01T02:49:50.712Z,976.16
2018-04-01T02:50:50.935Z,976.17
2018-04-01T02:51:51.159Z,976.15
2018-04-01T02:52:51.383Z,976.19
2018-04-01T02:53:51.606Z,976.21
2018-04-01T02:54:51.832Z,976.23
2018-04-01T02:55:52.054Z,976.22
2018-04-01T02:56:52.276Z,976.22
2018-04-01T02:57:52.498Z,976.24
2018-04-01T02:58:52.721Z,976.25
2018-04-01T02:59:52.945Z,976.25
2018-04-01T03:00:53.179Z,976.23
2018-04-01T03:01:53.455Z,976.26
2018-04-01T03:02:53.637Z,976.26
2018-04-01T03:03:53.856Z,976.28
2018-04-01T03:04:54.082Z,976.32
2018-04-01T03:05:54.311Z,976.35
2018-04-01T03:06:54.535Z,976.35
2018-04-01T03:07:54.757Z,976.40
2018-04-01T03:08:54.978Z,976.43
2018-04-01T03:09:55.236Z,976.44
2018-04-01T03:10:55.457Z,976.46
2018-04-01T03:11:55.681Z,976.46
2018-04-01T03:12:55.911Z,976.50
2018-04-01T03:13:56.127Z,976.51
2018-04-01T03:14:56.358Z,976.48
2018-04-01T03:15:56.576Z,976.53
2018-04-01T03:16:56.792Z,976.58
2018-04-01T03:17:57.016Z,976.55
2018-04-01T03:18:57.246Z,976.57
2018-04-01T03:19:57.465Z,976.58
2018-04-01T03:20:57.691Z,976.56
2018-04-01T03:21:57.917Z,976.56
2018-04-01T03:22:58.139Z,976.55
2018-04-01T03:23:58.363Z,976.58
2018-04-01T03:24:58.586Z,976.60
2018-04-01T03:25:58.810Z,976.54
2018-04-01T03:26:59.035Z,976.59
2018-04-01T03:27:59.260Z,976.64
2018-04-01T03:28:59.490Z,976.59
2018-04-01T03:29:59.709Z,976.48
2018-04-01T03:30:59.941Z,976.55
2018-04-01T03:32:00.163Z,976.61
2018-04-01T03:33:00.390Z,976.51
2018-04-01T03:34:00.616Z,976.52
2018-04-01T03:35:00.840Z,976.65
2018-04-01T03:36:01.067Z,976.61
2018-04-01T03:37:01.296Z,976.59
2018-04-01T03:38:01.513Z,976.62
2018-04-01T03:39:01.737Z,976.62
2018-04-01T03:40:01.957Z,976.65
2018-04-01T03:41:02.183Z,976.67
2018-04-01T03:42:02.409Z,976.72
2018-04-01T03:43:02.633Z,976.76
2018-04-01T03:44:02.857Z,976.75
2018-04-01T03:45:03.082Z,976.80
2018-04-01T03:46:03.308Z,976.79
2018-04-01T03:47:03.529Z,976.81
2018-04-01T03:48:03.750Z,976.80
2018-04-01T03:49:03.974Z,976.81
2018-04-01T03:50:04.197Z,976.79
2018-04-01T03:51:04.422Z,976.79
2018-04-01T03:52:04.648Z,976.79
2018-04-01T03:53:04.872Z,976.78
2018-04-01T03:54:05.102Z,976.77
2018-04-01T03:55:05.326Z,976.84
2018-04-01T03:56:05.551Z,976.84
2018-04-01T03:57:05.776Z,976.87
2018-04-01T03:58:05.999Z,976.88
2018-04-01T03:59:06.225Z,976.91
2018-04-01T04:00:06.450Z,976.93
2018-04-01T04:01:06.679Z,976.88
2018-04-01T04:02:06.900Z,976.90
2018-04-01T04:03:07.122Z,976.88
2018-04-01T04:04:07.347Z,976.89
2018-04-01T04:05:07.571Z,976.95
2018-04-01T04:06:07.795Z,976.93
2018-04-01T04:07:08.020Z,976.97
2018-04-01T04:08:08.243Z,976.99
2018-04-01T04:09:08.468Z,977.01
2018-04-01T04:10:08.692Z,977.01
2018-04-01T04:11:08.916Z,977.02
2018-04-01T04:12:09.144Z,977.03
2018-04-01T04:13:09.366Z,977.05
2018-04-01T04:14:09.593Z,977.03
2018-04-01T04:15:09.817Z,977.00
2018-04-01T04:16:10.038Z,977.01
2018-04-01T04:17:10.266Z,977.01
2018-04-01T04:18:10.492Z,977.02
2018-04-01T04:19:10.714Z,977.05
2018-04-01T04:20:10.939Z,977.02
2018-04-01T04:21:11.164Z,977.03
2018-04-01T04:22:11.385Z,977.03
2018-04-01T04:23:11.612Z,977.07
2018-04-01T04:24:11.837Z,977.06
2018-04-01T04:25:12.060Z,977.09
2018-04-01T04:26:12.287Z,977.06
2018-04-01T04:27:12.509Z,977.04
2018-04-01T04:28:12.739Z,977.10
2018-04-01T04:29:12.955Z,977.06
2018-04-01T04:30:13.183Z,977.09
2018-04-01T04:31:13.406Z,977.08
2018-04-01T04:32:13.629Z,977.09
2018-04-01T04:33:13.856Z,977.05
2018-04-01T04:34:14.081Z,977.05
2018-04-01T04:35:14.305Z,977.09
2018-04-01T04:36:14.525Z,977.10
2018-04-01T04:37:14.750Z,977.08
2018-04-01T04:38:14.993Z,977.11
2018-04-01T04:39:15.219Z,977.15
2018-04-01T04:40:15.443Z,977.16
2018-04-01T04:41:15.671Z,977.19
2018-04-01T04:42:15.896Z,977.21
2018-04-01T04:43:16.121Z,977.22
2018-04-01T04:44:16.358Z,977.19
2018-04-01T04:45:16.581Z,977.19
2018-04-01T04:46:16.804Z,977.20
2018-04-01T04:47:17.028Z,977.19
2018-04-01T04:48:17.254Z,977.22
2018-04-01T04:49:17.475Z,977.18
2018-04-01T04:50:17.694Z,977.17
2018-04-01T04:51:17.923Z,977.17
2018-04-01T04:52:18.146Z,977.18
2018-04-01T04:53:18.372Z,977.14
2018-04-01T04:54:18.593Z,977.17
2018-04-01T04:55:18.822Z,977.20
2018-04-01T04:56:19.048Z,977.22
2018-04-01T04:57:19.269Z,977.22
2018-04-01T04:58:19.494Z,977.21
2018-04-01T04:59:19.719Z,977.27
2018-04-01T05:00:19.946Z,977.27
2018-04-01T05:01:20.168Z,977.24
2018-04-01T05:02:20.394Z,977.26
2018-04-01T05:03:20.620Z,977.25
2018-04-01T05:04:20.846Z,977.27
2018-04-01T05:05:21.074Z,977.29
2018-04-01T05:06:21.298Z,977.26
2018-04-01T05:07:21.522Z,977.28
2018-04-01T05:08:21.773Z,977.29
2018-04-01T05:09:21.968Z,977.29
2018-04-01T05:10:22.202Z,977.30
2018-04-01T05:11:22.430Z,977.30
2018-04-01T05:12:22.649Z,977.28
2018-04-01T05:13:22.875Z,977.28
2018-04-01T05:14:23.104Z,977.27
2018-04-01T05:15:23.325Z,977.29
2018-04-01T05:16:23.555Z,977.31
2018-04-01T05:17:23.784Z,977.33
2018-04-01T05:18:24.009Z,977.35
2018-04-01T05:19:24.235Z,977.35
2018-04-01T05:20:24.460Z,977.36
2018-04-01T05:21:24.682Z,977.34
2018-04-01T05:22:24.906Z,977.31
2018-04-01T05:23:25.133Z,977.31
2018-04-01T05:24:25.360Z,977.35
2018-04-01T05:25:25.580Z,977.26
2018-04-01T05:26:25.805Z,977.30
2018-04-01T05:27:26.031Z,977.27
2018-04-01T05:28:26.264Z,977.25
2018-04-01T05:29:26.484Z,977.25
2018-04-01T05:30:26.713Z,977.30
2018-04-01T05:31:26.936Z,977.31
2018-04-01T05:32:27.162Z,977.33
2018-04-01T05:33:27.386Z,977.35
2018-04-01T05:34:27.613Z,977.34
2018-04-01T05:35:27.839Z,977.36
2018-04-01T05:36:28.067Z,977.36
2018-04-01T05:37:28.291Z,977.40
2018-04-01T05:38:28.515Z,977.38
2018-04-01T05:39:28.740Z,977.47
2018-04-01T05:40:28.968Z,977.41
2018-04-01T05:41:29.190Z,977.44
2018-04-01T05:42:29.419Z,977.45
2018-04-01T05:43:29.644Z,977.46
2018-04-01T05:44:29.868Z,977.46
2018-04-01T05:45:30.092Z,977.46
2018-04-01T05:46:30.321Z,977.44
2018-04-01T05:47:30.544Z,977.44
2018-04-01T05:48:30.770Z,977.43
2018-04-01T05:49:30.996Z,977.45
2018-04-01T05:50:31.220Z,977.51
2018-04-01T05:51:31.487Z,977.52
2018-04-01T05:52:31.668Z,977.57
2018-04-01T05:53:31.889Z,977.58
2018-04-01T05:54:32.116Z,977.61
2018-04-01T05:55:32.344Z,977.56
2018-04-01T05:56:32.567Z,977.61
2018-04-01T05:57:32.788Z,977.60
2018-04-01T05:58:33.014Z,977.62
2018-04-01T05:59:33.240Z,977.68
2018-04-01T06:00:33.466Z,977.66
2018-04-01T06:01:33.691Z,977.67
2018-04-01T06:02:33.913Z,977.70
2018-04-01T06:03:34.177Z,977.66
2018-04-01T06:04:34.358Z,977.66
2018-04-01T06:05:34.582Z,977.67
2018-04-01T06:06:34.808Z,977.68
2018-04-01T06:07:35.032Z,977.70
2018-04-01T06:08:35.269Z,977.69
2018-04-01T06:09:35.490Z,977.74
2018-04-01T06:10:35.718Z,977.71
2018-04-01T06:11:35.943Z,977.77
2018-04-01T06:12:36.167Z,977.75
2018-04-01T06:13:36.390Z,977.73
2018-04-01T06:14:36.618Z,977.77
2018-04-01T06:15:36.841Z,977.77
2018-04-01T06:16:37.066Z,977.74
2018-04-01T06:17:37.293Z,977.77
2018-04-01T06:18:37.518Z,977.75
2018-04-01T06:19:37.746Z,977.79
2018-04-01T06:20:37.969Z,977.79
2018-04-01T06:21:38.196Z,977.73
2018-04-01T06:22:38.423Z,977.76
2018-04-01T06:23:38.646Z,977.76
2018-04-01T06:24:38.868Z,977.77
2018-04-01T06:25:39.098Z,977.82
2018-04-01T06:26:39.321Z,977.83
2018-04-01T06:27:39.546Z,977.88
2018-04-01T06:28:39.765Z,977.86
2018-04-01T06:29:39.988Z,977.90
2018-04-01T06:30:40.214Z,977.86
2018-04-01T06:31:40.442Z,977.92
2018-04-01T06:32:40.668Z,977.90
2018-04-01T06:33:40.894Z,977.94
2018-04-01T06:34:41.121Z,977.91
2018-04-01T06:35:41.340Z,977.93
2018-04-01T06:36:41.567Z,977.90
2018-04-01T06:37:41.793Z,977.93
2018-04-01T06:38:42.016Z,977.97
2018-04-01T06:39:42.240Z,977.96
2018-04-01T06:40:42.467Z,977.98
2018-04-01T06:41:42.696Z,977.97
2018-04-01T06:42:42.922Z,977.99
2018-04-01T06:43:43.148Z,977.92
2018-04-01T06:44:43.374Z,977.91
2018-04-01T06:45:43.601Z,977.92
2018-04-01T06:46:43.824Z,977.92
2018-04-01T06:47:44.051Z,977.93
2018-04-01T06:48:44.279Z,977.92
2018-04-01T06:49:44.501Z,977.94
2018-04-01T06:50:44.795Z,977.97
2018-04-01T06:51:44.961Z,977.97
2018-04-01T06:52:45.193Z,977.98
2018-04-01T06:53:45.417Z,978.04
2018-04-01T06:54:45.646Z,978.06
2018-04-01T06:55:45.870Z,978.07
2018-04-01T06:56:46.096Z,978.08
2018-04-01T06:57:46.323Z,978.06
2018-04-01T06:58:46.547Z,978.07
2018-04-01T06:59:46.775Z,978.07
2018-04-01T07:00:47.000Z,978.06
2018-04-01T07:01:47.228Z,978.09
2018-04-01T07:02:47.455Z,978.08
2018-04-01T07:03:47.680Z,978.09
2018-04-01T07:04:47.905Z,978.13
2018-04-01T07:05:48.134Z,978.15
2018-04-01T07:06:48.356Z,978.14
2018-04-01T07:07:48.578Z,978.19
2018-04-01T07:08:48.808Z,978.21
2018-04-01T07:09:49.043Z,978.19
2018-04-01T07:10:49.264Z,978.20
2018-04-01T07:11:49.489Z,978.27
2018-04-01T07:12:49.716Z,978.25
2018-04-01T07:13:49.943Z,978.30
2018-04-01T07:14:50.173Z,978.31
2018-04-01T07:15:50.396Z,978.34
2018-04-01T07:16:50.632Z,978.38
2018-04-01T07:17:50.848Z,978.36
2018-04-01T07:18:51.071Z,978.40
2018-04-01T07:19:51.296Z,978.41
2018-04-01T07:20:51.519Z,978.47
2018-04-01T07:21:51.751Z,978.47
2018-04-01T07:22:51.969Z,978.48
2018-04-01T07:23:52.194Z,978.45
2018-04-01T07:24:52.421Z,978.51
2018-04-01T07:25:52.648Z,978.52
2018-04-01T07:26:52.872Z,978.51
2018-04-01T07:27:53.096Z,978.56
2018-04-01T07:28:53.332Z,978.55
2018-04-01T07:29:53.549Z,978.58
2018-04-01T07:30:53.772Z,978.60
2018-04-01T07:31:53.999Z,978.58
2018-04-01T07:32:54.226Z,978.63
2018-04-01T07:33:54.458Z,978.65
2018-04-01T07:34:54.685Z,978.64
2018-04-01T07:35:54.910Z,978.65
2018-04-01T07:36:55.134Z,978.68
2018-04-01T07:37:55.358Z,978.71
2018-04-01T07:38:55.585Z,978.70
2018-04-01T07:39:55.803Z,978.76
2018-04-01T07:40:56.034Z,978.72
2018-04-01T07:41:56.267Z,978.72
2018-04-01T07:42:56.484Z,978.75
2018-04-01T07:43:56.704Z,978.80
2018-04-01T07:44:56.933Z,978.77
2018-04-01T07:45:57.161Z,978.81
2018-04-01T07:46:57.386Z,978.82
2018-04-01T07:47:57.609Z,978.78
2018-04-01T07:48:57.834Z,978.83
2018-04-01T07:49:58.059Z,978.82
2018-04-01T07:50:58.284Z,978.80
2018-04-01T07:51:58.519Z,978.86
2018-04-01T07:52:58.741Z,978.86
2018-04-01T07:53:58.969Z,978.84
2018-04-01T07:54:59.195Z,978.87
2018-04-01T07:55:59.421Z,978.85
2018-04-01T07:56:59.651Z,978.80
2018-04-01T07:57:59.874Z,978.82
2018-04-01T07:59:00.102Z,978.87
2018-04-01T08:00:00.328Z,978.84
2018-04-01T08:01:00.555Z,978.87
2018-04-01T08:02:00.780Z,978.80
2018-04-01T08:03:01.020Z,978.81
2018-04-01T08:04:01.245Z,978.84
2018-04-01T08:05:01.470Z,978.88
2018-04-01T08:06:01.692Z,978.87
2018-04-01T08:07:01.923Z,978.90
2018-04-01T08:08:02.197Z,978.89
2018-04-01T08:09:02.372Z,978.87
2018-04-01T08:10:02.600Z,978.89
2018-04-01T08:11:02.823Z,978.85
2018-04-01T08:12:03.051Z,978.83
2018-04-01T08:13:03.276Z,978.81
2018-04-01T08:14:03.503Z,978.86
2018-04-01T08:15:03.729Z,978.83
2018-04-01T08:16:03.956Z,978.86
2018-04-01T08:17:04.181Z,978.85
2018-04-01T08:18:04.410Z,978.87
2018-04-01T08:19:04.637Z,978.88
2018-04-01T08:20:04.864Z,978.87
2018-04-01T08:21:05.090Z,978.82
2018-04-01T08:22:05.320Z,978.85
2018-04-01T08:23:05.544Z,978.85
2018-04-01T08:24:05.776Z,978.87
2018-04-01T08:25:05.998Z,978.90
2018-04-01T08:26:06.223Z,978.87
2018-04-01T08:27:06.459Z,978.84
2018-04-01T08:28:06.681Z,978.90
2018-04-01T08:29:06.896Z,978.88
2018-04-01T08:30:07.125Z,978.88
2018-04-01T08:31:07.350Z,978.90
2018-04-01T08:32:07.576Z,978.93
2018-04-01T08:33:07.804Z,978.92
2018-04-01T08:34:08.030Z,978.95
2018-04-01T08:35:08.258Z,978.94
2018-04-01T08:36:08.482Z,978.94
2018-04-01T08:37:08.711Z,978.97
2018-04-01T08:38:08.937Z,978.94
2018-04-01T08:39:09.165Z,978.92
2018-04-01T08:40:09.417Z,978.97
2018-04-01T08:41:09.622Z,978.98
2018-04-01T08:42:09.846Z,978.99
2018-04-01T08:43:10.074Z,979.01
2018-04-01T08:44:10.304Z,979.06
2018-04-01T08:45:10.526Z,979.10
2018-04-01T08:46:10.797Z,979.12
2018-04-01T08:47:10.982Z,979.15
2018-04-01T08:48:11.206Z,979.14
2018-04-01T08:49:11.431Z,979.18
2018-04-01T08:50:11.651Z,979.22
2018-04-01T08:51:11.878Z,979.21
2018-04-01T08:52:12.104Z,979.23
2018-04-01T08:53:12.333Z,979.22
2018-04-01T08:54:12.555Z,979.24
2018-04-01T08:55:12.783Z,979.18
2018-04-01T08:56:13.014Z,979.25
2018-04-01T08:57:13.238Z,979.27
2018-04-01T08:58:13.472Z,979.31
2018-04-01T08:59:13.697Z,979.29
2018-04-01T09:00:13.918Z,979.30
2018-04-01T09:01:14.147Z,979.34
2018-04-01T09:02:14.374Z,979.35
2018-04-01T09:03:14.598Z,979.37
2018-04-01T09:04:14.827Z,979.40
2018-04-01T09:05:15.054Z,979.39
2018-04-01T09:06:15.277Z,979.35
2018-04-01T09:07:15.502Z,979.36
2018-04-01T09:08:15.729Z,979.34
2018-04-01T09:09:15.952Z,979.39
2018-04-01T09:10:16.178Z,979.41
2018-04-01T09:11:16.408Z,979.38
2018-04-01T09:12:16.636Z,979.40
2018-04-01T09:13:16.869Z,979.41
2018-04-01T09:14:17.092Z,979.42
2018-04-01T09:15:17.322Z,979.42
2018-04-01T09:16:17.552Z,979.40
2018-04-01T09:17:17.791Z,979.44
2018-04-01T09:18:18.003Z,979.44
2018-04-01T09:19:18.231Z,979.48
2018-04-01T09:20:18.460Z,979.44
2018-04-01T09:21:18.688Z,979.47
2018-04-01T09:22:18.915Z,979.46
2018-04-01T09:23:19.152Z,979.52
2018-04-01T09:24:19.384Z,979.49
2018-04-01T09:25:19.609Z,979.51
2018-04-01T09:26:19.842Z,979.50
2018-04-01T09:27:20.070Z,979.46
2018-04-01T09:28:20.300Z,979.50
2018-04-01T09:29:20.519Z,979.46
2018-04-01T09:30:20.747Z,979.47
2018-04-01T09:31:20.976Z,979.45
2018-04-01T09:32:21.201Z,979.47
2018-04-01T09:33:21.430Z,979.46
2018-04-01T09:34:21.668Z,979.48
2018-04-01T09:35:21.900Z,979.47
2018-04-01T09:36:22.122Z,979.47
2018-04-01T09:37:22.351Z,979.49
2018-04-01T09:38:22.573Z,979.50
2018-04-01T09:39:22.801Z,979.47
2018-04-01T09:40:23.030Z,979.49
2018-04-01T09:41:23.258Z,979.50
2018-04-01T09:42:23.479Z,979.48
2018-04-01T09:43:23.712Z,979.46
2018-04-01T09:44:23.941Z,979.50
2018-04-01T09:45:24.169Z,979.50
2018-04-01T09:46:24.400Z,979.55
2018-04-01T09:47:24.626Z,979.56
2018-04-01T09:48:24.852Z,979.59
2018-04-01T09:49:25.082Z,979.63
2018-04-01T09:50:25.311Z,979.59
2018-04-01T09:51:25.539Z,979.61
2018-04-01T09:52:25.766Z,979.60
2018-04-01T09:53:25.991Z,979.61
2018-04-01T09:54:26.222Z,979.60
2018-04-01T09:55:26.446Z,979.57
2018-04-01T09:56:26.677Z,979.61
2018-04-01T09:57:26.909Z,979.59
2018-04-01T09:58:27.136Z,979.61
2018-04-01T09:59:27.363Z,979.62
2018-04-01T10:00:27.593Z,979.69
2018-04-01T10:01:27.823Z,979.70
2018-04-01T10:02:28.048Z,979.70
2018-04-01T10:03:28.277Z,979.67
2018-04-01T10:04:28.506Z,979.67
2018-04-01T10:05:28.733Z,979.69
2018-04-01T10:06:28.960Z,979.70
2018-04-01T10:07:29.189Z,979.70
2018-04-01T10:08:29.414Z,979.69
2018-04-01T10:09:29.640Z,979.68
2018-04-01T10:10:29.868Z,979.73
2018-04-01T10:11:30.095Z,979.77
2018-04-01T10:12:30.326Z,979.73
2018-04-01T10:13:30.552Z,979.69
2018-04-01T10:14:30.780Z,979.74
2018-04-01T10:15:31.008Z,979.80
2018-04-01T10:16:31.236Z,979.75
2018-04-01T10:17:31.460Z,979.81
2018-04-01T10:18:31.686Z,979.77
2018-04-01T10:19:31.913Z,979.75
2018-04-01T10:20:32.147Z,979.70
2018-04-01T10:21:32.369Z,979.71
2018-04-01T10:22:32.600Z,979.73
2018-04-01T10:23:32.817Z,979.77
2018-04-01T10:24:33.046Z,979.73
2018-04-01T10:25:33.278Z,979.72
2018-04-01T10:26:33.492Z,979.76
2018-04-01T10:27:33.720Z,979.78
2018-04-01T10:28:33.949Z,979.75
2018-04-01T10:29:34.176Z,979.82
2018-04-01T10:30:34.403Z,979.80
2018-04-01T10:31:34.637Z,979.84
2018-04-01T10:32:34.864Z,979.86
2018-04-01T10:33:35.087Z,979.89
2018-04-01T10:34:35.314Z,979.86
2018-04-01T10:35:35.539Z,979.91
2018-04-01T10:36:35.764Z,979.90
2018-04-01T10:37:35.991Z,979.91
2018-04-01T10:38:36.219Z,979.95
2018-04-01T10:39:36.441Z,979.97
2018-04-01T10:40:36.666Z,979.94
2018-04-01T10:41:36.894Z,979.99
2018-04-01T10:42:37.124Z,979.99
2018-04-01T10:43:37.349Z,979.99
2018-04-01T10:44:37.577Z,980.06
2018-04-01T10:45:37.807Z,980.12
2018-04-01T10:46:38.030Z,980.10
2018-04-01T10:47:38.258Z,980.18
2018-04-01T10:48:38.491Z,980.20
2018-04-01T10:49:38.717Z,980.18
2018-04-01T10:50:38.954Z,980.21
2018-04-01T10:51:39.171Z,980.18
2018-04-01T10:52:39.396Z,980.25
2018-04-01T10:53:39.624Z,980.26
2018-04-01T10:54:39.850Z,980.28
2018-04-01T10:55:40.081Z,980.23
2018-04-01T10:56:40.308Z,980.24
2018-04-01T10:57:40.534Z,980.29
2018-04-01T10:58:40.762Z,980.29
2018-04-01T10:59:40.989Z,980.26
2018-04-01T11:00:41.212Z,980.26
2018-04-01T11:01:41.439Z,980.30
2018-04-01T11:02:41.677Z,980.28
2018-04-01T11:03:41.896Z,980.27
2018-04-01T11:04:42.115Z,980.29
2018-04-01T11:05:42.339Z,980.24
2018-04-01T11:06:42.566Z,980.27
2018-04-01T11:07:42.798Z,980.26
2018-04-01T11:08:43.018Z,980.28
2018-04-01T11:09:43.248Z,980.29
2018-04-01T11:10:43.469Z,980.28
2018-04-01T11:11:43.703Z,980.33
2018-04-01T11:12:43.927Z,980.34
2018-04-01T11:13:44.148Z,980.31
2018-04-01T11:14:44.379Z,980.36
2018-04-01T11:15:44.601Z,980.33
2018-04-01T11:16:44.830Z,980.33
2018-04-01T11:17:45.052Z,980.31
2018-04-01T11:18:45.281Z,980.32
2018-04-01T11:19:45.511Z,980.39
2018-04-01T11:20:45.735Z,980.32
2018-04-01T11:21:45.962Z,980.36
2018-04-01T11:22:46.198Z,980.37
2018-04-01T11:23:46.417Z,980.36
2018-04-01T11:24:46.646Z,980.39
2018-04-01T11:25:46.872Z,980.42
2018-04-01T11:26:47.156Z,980.43
2018-04-01T11:27:47.373Z,980.45
2018-04-01T11:28:47.597Z,980.49
2018-04-01T11:29:47.826Z,980.47
2018-04-01T11:30:48.053Z,980.51
2018-04-01T11:31:48.276Z,980.53
2018-04-01T11:32:48.498Z,980.51
2018-04-01T11:33:48.736Z,980.54
2018-04-01T11:34:48.954Z,980.59
2018-04-01T11:35:49.185Z,980.57
2018-04-01T11:36:49.416Z,980.56
2018-04-01T11:37:49.635Z,980.59
2018-04-01T11:38:49.866Z,980.58
2018-04-01T11:39:50.095Z,980.60
2018-04-01T11:40:50.324Z,980.60
2018-04-01T11:41:50.560Z,980.58
2018-04-01T11:42:50.794Z,980.63
2018-04-01T11:43:51.024Z,980.56
2018-04-01T11:44:51.249Z,980.61
2018-04-01T11:45:52.109Z,980.61
2018-04-01T11:46:51.723Z,980.63
2018-04-01T11:47:51.952Z,980.64
2018-04-01T11:48:52.175Z,980.66
2018-04-01T11:49:52.400Z,980.67
2018-04-01T11:50:52.635Z,980.66
2018-04-01T11:51:52.865Z,980.65
2018-04-01T11:52:53.085Z,980.66
2018-04-01T11:53:53.304Z,980.68
2018-04-01T11:54:53.537Z,980.70
2018-04-01T11:55:53.762Z,980.67
2018-04-01T11:56:54.029Z,980.69
2018-04-01T11:57:54.213Z,980.69
2018-04-01T11:58:54.436Z,980.70
2018-04-01T11:59:54.662Z,980.72
2018-04-01T12:00:54.891Z,980.72
2018-04-01T12:01:55.116Z,980.69
2018-04-01T12:02:55.409Z,980.75
2018-04-01T12:03:55.586Z,980.77
2018-04-01T12:04:55.800Z,980.75
2018-04-01T12:05:56.025Z,980.76
2018-04-01T12:06:56.245Z,980.75
2018-04-01T12:07:56.475Z,980.75
2018-04-01T12:08:56.724Z,980.78
2018-04-01T12:09:56.927Z,980.74
2018-04-01T12:10:57.158Z,980.78
2018-04-01T12:11:57.382Z,980.73
2018-04-01T12:12:57.613Z,980.78
2018-04-01T12:13:57.847Z,980.77
2018-04-01T12:14:58.065Z,980.76
2018-04-01T12:15:58.293Z,980.76
2018-04-01T12:16:58.522Z,980.74
2018-04-01T12:17:58.748Z,980.78
2018-04-01T12:18:58.982Z,980.77
2018-04-01T12:19:59.210Z,980.75
2018-04-01T12:20:59.444Z,980.76
2018-04-01T12:21:59.677Z,980.75
2018-04-01T12:22:59.905Z,980.79
2018-04-01T12:24:00.135Z,980.81
2018-04-01T12:25:00.373Z,980.81
2018-04-01T12:26:00.599Z,980.87
2018-04-01T12:27:00.838Z,980.85
2018-04-01T12:28:01.070Z,980.88
2018-04-01T12:29:01.305Z,980.87
2018-04-01T12:30:01.534Z,980.93
2018-04-01T12:31:01.763Z,980.91